Terminal Aerodrome Forecast
Issued by NWS Grand Rapids, MI

Home | Current Version | Previous Version | Text Only | Print | Product List | Glossary On
Versions: 1 2 3 4 5 6 7 8 9 10 11 12 13 14 15 16 17 18 19 20 21 22 23 24 25
000
FTUS43 KGRR 012300
TAFGRR
TAF
KGRR 012340Z 0200/0224 14005KT P6SM SKC
     FM021100 15008KT 5SM -SHRA BR OVC035
     FM021400 16008KT 2SM -TSRA BR OVC015CB
     FM021500 17009KT 4SM BR VCSH OVC008
     FM021700 18010KT 6SM BR VCSH OVC012=

USA.gov is the U.S. government's official web portal to all federal, state and local government web resources and services.